Time;durP1;ratioP1;P1;durP2;ratioP2;P2;SDS_P1;SDS_P2;PMS_P1;PMS_P2;Temp;Humidity;BMP_temperature;BMP_pressure;BME280_temperature;BME280_humidity;BME280_pressure;Samples;Min_cycle;Max_cycle;Signal;HPM_P1;HPM_P2
2020/12/31 00:02:14;;;;;;;19.00;16.58;;;;;;;;;;5080219;28;20882;-76
2020/12/31 00:04:41;;;;;;;18.20;16.30;;;;;;;;;;5056439;28;20425;-76
2020/12/31 00:07:07;;;;;;;16.17;14.57;;;;;;;;;;5059125;28;20410;-78
2020/12/31 00:09:35;;;;;;;17.30;15.57;;;;;;;;;;5074135;28;20392;-78
2020/12/31 00:12:01;;;;;;;18.83;16.00;;;;;;;;;;5052967;28;20473;-78
2020/12/31 00:14:27;;;;;;;18.05;15.80;;;;;;;;;;5070167;28;20350;-79
2020/12/31 00:16:53;;;;;;;17.10;15.30;;;;;;;;;;5051210;28;20425;-81
2020/12/31 00:19:19;;;;;;;17.70;15.80;;;;;;;;;;5070607;28;20360;-78
2020/12/31 00:21:45;;;;;;;19.23;16.77;;;;;;;;;;5048340;28;20367;-77
2020/12/31 00:24:11;;;;;;;17.65;15.85;;;;;;;;;;5059065;28;20398;-79
2020/12/31 00:26:37;;;;;;;18.48;16.50;;;;;;;;;;5072056;28;20416;-78
2020/12/31 00:29:03;;;;;;;18.43;16.53;;;;;;;;;;5072052;28;20365;-78
2020/12/31 00:31:29;;;;;;;17.30;15.50;;;;;;;;;;5052195;28;20610;-78
2020/12/31 00:33:55;;;;;;;19.60;16.77;;;;;;;;;;5033993;28;20731;-78
2020/12/31 00:36:21;;;;;;;17.15;15.25;;;;;;;;;;5052413;28;20359;-80
2020/12/31 00:38:51;;;;;;;17.67;15.50;;;;;;;;;;5052254;28;20866;-78
2020/12/31 00:41:17;;;;;;;18.45;16.35;;;;;;;;;;5033162;28;20407;-75
2020/12/31 00:43:43;;;;;;;19.67;16.40;;;;;;;;;;5033456;28;20484;-79
2020/12/31 00:46:09;;;;;;;19.13;16.37;;;;;;;;;;5058441;28;20367;-79
2020/12/31 00:48:35;;;;;;;17.83;15.57;;;;;;;;;;5061716;28;20370;-78
2020/12/31 00:51:01;;;;;;;17.73;15.93;;;;;;;;;;5069739;28;20872;-78
2020/12/31 00:53:27;;;;;;;18.92;16.92;;;;;;;;;;5051701;28;20362;-77
2020/12/31 00:55:53;;;;;;;20.08;16.63;;;;;;;;;;5070127;28;20493;-77
2020/12/31 00:58:19;;;;;;;17.77;15.80;;;;;;;;;;5052768;28;20377;-77
2020/12/31 01:00:45;;;;;;;18.20;16.35;;;;;;;;;;5070172;28;20400;-76
2020/12/31 01:03:11;;;;;;;18.52;16.55;;;;;;;;;;5052663;28;20401;-76
2020/12/31 01:05:38;;;;;;;17.83;15.85;;;;;;;;;;5070353;28;20355;-78
2020/12/31 01:08:04;;;;;;;16.92;15.15;;;;;;;;;;5069946;28;20389;-77
2020/12/31 01:10:30;;;;;;;18.00;16.00;;;;;;;;;;5052303;28;20401;-78
2020/12/31 01:12:56;;;;;;;17.27;15.45;;;;;;;;;;5070238;28;20361;-77
2020/12/31 01:15:22;;;;;;;17.42;15.63;;;;;;;;;;5050126;28;20424;-78
2020/12/31 01:17:48;;;;;;;18.63;16.13;;;;;;;;;;5069708;28;20900;-76
2020/12/31 01:20:14;;;;;;;18.95;16.42;;;;;;;;;;5051836;28;20362;-78
2020/12/31 01:22:40;;;;;;;18.23;16.33;;;;;;;;;;5069493;28;20390;-78
2020/12/31 01:25:06;;;;;;;18.13;15.88;;;;;;;;;;5052098;28;20366;-79
2020/12/31 01:27:32;;;;;;;17.43;15.53;;;;;;;;;;5069711;28;20736;-79
2020/12/31 01:29:58;;;;;;;17.45;15.52;;;;;;;;;;5069408;28;20370;-78
2020/12/31 01:32:25;;;;;;;17.10;15.25;;;;;;;;;;5069180;28;20373;-78
2020/12/31 01:34:54;;;;;;;18.00;15.60;;;;;;;;;;5051535;28;20358;-76
2020/12/31 01:37:20;;;;;;;16.55;14.77;;;;;;;;;;5053671;28;20465;-77
2020/12/31 01:39:47;;;;;;;17.88;14.68;;;;;;;;;;5051738;28;20354;-77
2020/12/31 01:42:13;;;;;;;17.05;15.23;;;;;;;;;;5070136;28;20358;-77
2020/12/31 01:44:39;;;;;;;17.10;14.98;;;;;;;;;;5070564;28;20366;-76
2020/12/31 01:47:05;;;;;;;17.23;15.43;;;;;;;;;;5052680;28;20765;-76
2020/12/31 01:49:33;;;;;;;15.38;13.75;;;;;;;;;;5070677;28;20381;-76
2020/12/31 01:52:00;;;;;;;17.23;14.73;;;;;;;;;;5070605;28;20386;-77
2020/12/31 01:54:26;;;;;;;15.32;13.73;;;;;;;;;;5070656;28;20358;-77
2020/12/31 01:56:54;;;;;;;15.18;13.57;;;;;;;;;;5070451;28;20473;-78
2020/12/31 01:59:20;;;;;;;15.30;13.60;;;;;;;;;;5051955;28;20374;-78
2020/12/31 02:01:49;;;;;;;15.38;13.70;;;;;;;;;;5070527;28;20767;-78
2020/12/31 02:04:16;;;;;;;15.73;14.03;;;;;;;;;;5070213;28;20405;-77
2020/12/31 02:06:42;;;;;;;15.55;13.95;;;;;;;;;;5052420;28;20374;-78
2020/12/31 02:09:08;;;;;;;15.95;14.25;;;;;;;;;;5051530;28;20883;-78
2020/12/31 02:11:35;;;;;;;15.52;13.82;;;;;;;;;;5070490;28;20377;-77
2020/12/31 02:14:01;;;;;;;15.20;13.60;;;;;;;;;;5052074;28;20382;-78
2020/12/31 02:16:28;;;;;;;15.95;14.13;;;;;;;;;;5070138;28;20354;-77
2020/12/31 02:18:55;;;;;;;15.88;14.18;;;;;;;;;;5070397;28;20369;-77
2020/12/31 02:21:31;;;;;;;16.00;14.30;;;;;;;;;;5070115;28;20393;-78
2020/12/31 02:23:58;;;;;;;15.50;13.93;;;;;;;;;;5070253;28;20421;-77
2020/12/31 02:26:25;;;;;;;16.45;14.82;;;;;;;;;;5069946;28;20362;-78
2020/12/31 02:28:52;;;;;;;15.63;14.00;;;;;;;;;;5052103;28;20362;-77
2020/12/31 02:31:18;;;;;;;15.77;14.17;;;;;;;;;;5069759;28;20362;-76
2020/12/31 02:33:48;;;;;;;15.32;13.73;;;;;;;;;;5052026;28;20453;-78
2020/12/31 02:36:14;;;;;;;14.88;13.48;;;;;;;;;;5052127;28;20441;-79
2020/12/31 02:38:41;;;;;;;16.40;14.63;;;;;;;;;;5052094;28;20358;-77
2020/12/31 02:41:07;;;;;;;16.90;14.87;;;;;;;;;;5051717;28;20406;-77
2020/12/31 02:43:34;;;;;;;14.73;13.23;;;;;;;;;;5051909;28;20433;-77
2020/12/31 02:46:00;;;;;;;15.65;14.05;;;;;;;;;;5051984;28;20378;-76
2020/12/31 02:48:26;;;;;;;16.40;14.43;;;;;;;;;;5052154;28;20370;-76
2020/12/31 02:50:52;;;;;;;15.23;13.73;;;;;;;;;;5051649;28;20756;-77
2020/12/31 02:53:18;;;;;;;15.43;13.82;;;;;;;;;;5069845;28;20374;-77
2020/12/31 02:55:44;;;;;;;16.00;14.43;;;;;;;;;;5052089;28;20394;-77
2020/12/31 02:58:10;;;;;;;16.73;15.02;;;;;;;;;;5070018;28;20884;-78
2020/12/31 03:00:36;;;;;;;17.17;15.37;;;;;;;;;;5069634;28;20362;-77
2020/12/31 03:03:02;;;;;;;15.95;14.35;;;;;;;;;;5051765;28;20412;-78
2020/12/31 03:05:28;;;;;;;17.85;15.70;;;;;;;;;;5069930;28;20686;-77
2020/12/31 03:07:54;;;;;;;17.73;15.83;;;;;;;;;;5051818;28;20523;-76
2020/12/31 03:10:21;;;;;;;17.45;15.65;;;;;;;;;;5051796;28;20373;-83
2020/12/31 03:12:46;;;;;;;18.00;16.23;;;;;;;;;;5069711;28;20378;-77
2020/12/31 03:15:14;;;;;;;19.38;17.35;;;;;;;;;;5069829;28;20386;-78
2020/12/31 03:17:41;;;;;;;19.50;17.50;;;;;;;;;;5051728;28;20469;-77
2020/12/31 03:20:07;;;;;;;19.40;17.40;;;;;;;;;;5070195;28;20386;-77
2020/12/31 03:22:34;;;;;;;19.02;17.02;;;;;;;;;;5071789;28;20389;-78
2020/12/31 03:25:00;;;;;;;19.52;17.52;;;;;;;;;;5073584;28;20362;-76
2020/12/31 03:27:26;;;;;;;20.38;18.17;;;;;;;;;;5073495;28;20457;-78
2020/12/31 03:29:52;;;;;;;20.27;18.17;;;;;;;;;;5073179;28;20886;-77
2020/12/31 03:32:18;;;;;;;19.88;17.85;;;;;;;;;;5073319;28;21116;-77
2020/12/31 03:34:44;;;;;;;19.10;17.20;;;;;;;;;;5054967;28;20694;-78
2020/12/31 03:37:10;;;;;;;19.60;17.60;;;;;;;;;;5073110;28;20357;-77
2020/12/31 03:39:37;;;;;;;19.17;17.20;;;;;;;;;;5072921;28;20358;-77
2020/12/31 03:42:03;;;;;;;18.27;16.48;;;;;;;;;;5055141;28;20389;-77
2020/12/31 03:44:29;;;;;;;18.10;16.30;;;;;;;;;;5055286;28;20848;-78
2020/12/31 03:46:55;;;;;;;20.30;17.35;;;;;;;;;;5072989;28;20362;-77
2020/12/31 03:49:21;;;;;;;19.35;17.33;;;;;;;;;;5072777;28;20364;-77
2020/12/31 03:51:47;;;;;;;19.80;17.67;;;;;;;;;;5072589;28;20359;-77
2020/12/31 03:54:13;;;;;;;19.75;17.65;;;;;;;;;;5073235;28;20369;-78
2020/12/31 03:56:39;;;;;;;18.52;16.63;;;;;;;;;;5072664;28;20405;-78
2020/12/31 03:59:05;;;;;;;18.20;16.17;;;;;;;;;;5072447;28;20833;-78
2020/12/31 04:01:31;;;;;;;17.40;15.60;;;;;;;;;;5054501;28;20374;-77
2020/12/31 04:03:57;;;;;;;18.88;16.98;;;;;;;;;;5072390;28;20440;-77
2020/12/31 04:06:23;;;;;;;17.10;15.30;;;;;;;;;;5054752;28;20942;-77
2020/12/31 04:08:50;;;;;;;17.58;15.77;;;;;;;;;;5072723;28;20370;-78
2020/12/31 04:11:15;;;;;;;18.38;16.38;;;;;;;;;;5072208;28;20720;-77
2020/12/31 04:13:42;;;;;;;18.13;16.23;;;;;;;;;;5072270;28;20366;-78
2020/12/31 04:16:08;;;;;;;18.43;16.43;;;;;;;;;;5054550;28;20721;-77
2020/12/31 04:18:34;;;;;;;17.98;16.17;;;;;;;;;;5054471;28;20841;-78
2020/12/31 04:21:00;;;;;;;19.10;16.65;;;;;;;;;;5054002;28;20390;-78
2020/12/31 04:23:26;;;;;;;17.25;15.45;;;;;;;;;;5054096;28;20822;-77
2020/12/31 04:25:52;;;;;;;17.63;15.82;;;;;;;;;;5072195;28;20358;-77
2020/12/31 04:28:18;;;;;;;18.90;16.90;;;;;;;;;;5072266;28;20362;-77
2020/12/31 04:30:50;;;;;;;18.40;16.15;;;;;;;;;;5071891;28;20358;-77
2020/12/31 04:33:17;;;;;;;17.70;15.80;;;;;;;;;;5053635;28;20402;-77
2020/12/31 04:35:43;;;;;;;19.48;16.90;;;;;;;;;;5054303;28;20806;-77
2020/12/31 04:38:09;;;;;;;19.10;17.00;;;;;;;;;;5054370;28;20358;-77
2020/12/31 04:40:35;;;;;;;19.13;17.13;;;;;;;;;;5054165;28;20533;-78
2020/12/31 04:43:02;;;;;;;19.25;17.13;;;;;;;;;;5071781;28;20860;-78
2020/12/31 04:45:29;;;;;;;18.17;16.27;;;;;;;;;;5071881;28;20373;-79
2020/12/31 04:47:58;;;;;;;18.95;16.92;;;;;;;;;;5053784;28;20378;-79
2020/12/31 04:50:27;;;;;;;18.20;16.30;;;;;;;;;;5053507;28;20382;-78
2020/12/31 04:52:53;;;;;;;18.60;16.60;;;;;;;;;;5053826;28;20409;-78
2020/12/31 04:55:22;;;;;;;18.88;16.83;;;;;;;;;;5053801;28;20447;-77
2020/12/31 04:57:48;;;;;;;19.50;17.37;;;;;;;;;;5071454;28;20367;-78
2020/12/31 05:00:14;;;;;;;19.17;17.27;;;;;;;;;;5053399;28;20424;-77
2020/12/31 05:02:40;;;;;;;19.65;16.90;;;;;;;;;;5071745;28;20405;-77
2020/12/31 05:05:06;;;;;;;18.25;16.20;;;;;;;;;;5071778;28;20366;-78
2020/12/31 05:07:32;;;;;;;18.58;16.58;;;;;;;;;;5071285;28;20724;-77
2020/12/31 05:10:14;;;;;;;18.73;16.80;;;;;;;;;;5071432;28;20362;-78
2020/12/31 05:12:40;;;;;;;20.15;17.48;;;;;;;;;;5053282;28;20777;-77
2020/12/31 05:15:06;;;;;;;19.55;17.45;;;;;;;;;;5071134;28;20847;-78
2020/12/31 05:17:32;;;;;;;19.47;17.13;;;;;;;;;;5053333;28;20425;-78
2020/12/31 05:19:58;;;;;;;19.67;17.38;;;;;;;;;;5053034;28;20428;-77
2020/12/31 05:22:24;;;;;;;18.42;16.42;;;;;;;;;;5071027;28;20368;-77
2020/12/31 05:24:51;;;;;;;19.38;17.33;;;;;;;;;;5053198;28;20374;-77
2020/12/31 05:27:17;;;;;;;20.30;17.73;;;;;;;;;;5053074;28;21167;-77
2020/12/31 05:30:02;;;;;;;21.75;18.63;;;;;;;;;;5052801;28;20370;-76
2020/12/31 05:32:33;;;;;;;20.42;18.23;;;;;;;;;;5052804;28;20374;-76
2020/12/31 05:34:59;;;;;;;19.85;17.75;;;;;;;;;;5053647;28;20366;-78
2020/12/31 05:37:27;;;;;;;21.38;18.58;;;;;;;;;;5070724;28;20433;-77
2020/12/31 05:39:56;;;;;;;21.73;19.00;;;;;;;;;;5052539;28;20375;-77
2020/12/31 05:42:25;;;;;;;22.65;19.02;;;;;;;;;;5053105;28;20386;-77
2020/12/31 05:45:18;;;;;;;19.65;17.55;;;;;;;;;;5052505;28;20362;-77
2020/12/31 05:47:44;;;;;;;23.70;19.85;;;;;;;;;;5066922;28;20382;-77
2020/12/31 05:50:16;;;;;;;22.35;18.85;;;;;;;;;;5070451;28;20898;-77
2020/12/31 05:52:47;;;;;;;22.40;19.38;;;;;;;;;;5052696;28;20898;-79
2020/12/31 05:55:15;;;;;;;21.17;18.27;;;;;;;;;;5052902;28;20370;-77
2020/12/31 05:57:42;;;;;;;22.33;19.13;;;;;;;;;;5070618;28;20361;-78
2020/12/31 06:00:09;;;;;;;21.58;19.27;;;;;;;;;;5052634;28;20725;-78
2020/12/31 06:02:42;;;;;;;22.80;18.85;;;;;;;;;;5070939;28;20406;-77
2020/12/31 06:05:13;;;;;;;21.55;18.85;;;;;;;;;;5069809;28;20406;-77
2020/12/31 06:07:43;;;;;;;21.33;19.03;;;;;;;;;;5071150;28;20366;-77
2020/12/31 06:10:09;;;;;;;23.98;20.10;;;;;;;;;;5052400;28;20366;-77
2020/12/31 06:12:49;;;;;;;23.50;19.80;;;;;;;;;;5052775;28;20413;-77
2020/12/31 06:15:19;;;;;;;20.70;18.00;;;;;;;;;;5070491;28;20863;-78
2020/12/31 06:17:47;;;;;;;21.47;18.70;;;;;;;;;;5070781;28;20467;-77
2020/12/31 06:20:14;;;;;;;23.10;18.98;;;;;;;;;;5070165;28;20773;-78
2020/12/31 06:22:49;;;;;;;20.65;18.45;;;;;;;;;;5070327;28;20397;-78
2020/12/31 06:25:25;;;;;;;21.55;18.23;;;;;;;;;;5052373;28;20393;-78
2020/12/31 06:27:52;;;;;;;20.03;17.87;;;;;;;;;;5070367;28;20358;-79
2020/12/31 06:30:20;;;;;;;22.55;18.88;;;;;;;;;;5070585;28;20358;-78
2020/12/31 06:32:46;;;;;;;20.45;17.92;;;;;;;;;;5052465;28;20381;-78
2020/12/31 06:35:12;;;;;;;22.13;19.58;;;;;;;;;;5070303;28;20361;-79
2020/12/31 06:37:38;;;;;;;22.90;19.08;;;;;;;;;;5052413;28;20800;-77
2020/12/31 06:40:23;;;;;;;26.38;20.75;;;;;;;;;;5051964;28;20409;-77
2020/12/31 06:43:01;;;;;;;22.92;18.83;;;;;;;;;;5052339;28;20405;-77
2020/12/31 06:45:44;;;;;;;23.40;19.80;;;;;;;;;;5070213;28;20444;-77
2020/12/31 06:48:22;;;;;;;22.75;18.63;;;;;;;;;;5070100;28;20379;-77
2020/12/31 06:50:55;;;;;;;22.55;19.80;;;;;;;;;;5069916;28;20415;-77
2020/12/31 06:53:27;;;;;;;22.20;19.42;;;;;;;;;;5070085;28;20766;-77
2020/12/31 06:55:54;;;;;;;22.83;18.98;;;;;;;;;;5053491;28;20365;-77
2020/12/31 06:58:20;;;;;;;21.92;19.15;;;;;;;;;;5056160;28;20845;-77
2020/12/31 07:00:46;;;;;;;21.20;18.45;;;;;;;;;;5055889;28;20473;-77
2020/12/31 07:03:12;;;;;;;24.13;19.67;;;;;;;;;;5073553;28;20400;-77
2020/12/31 07:05:38;;;;;;;25.97;21.03;;;;;;;;;;5073672;28;20366;-77
2020/12/31 07:08:04;;;;;;;24.92;21.02;;;;;;;;;;5055924;28;20357;-76
2020/12/31 07:10:46;;;;;;;27.85;21.75;;;;;;;;;;5055441;28;20856;-77
2020/12/31 07:13:38;;;;;;;25.58;20.95;;;;;;;;;;5055545;28;20362;-78
2020/12/31 07:16:04;;;;;;;23.75;20.98;;;;;;;;;;5069776;28;20431;-77
2020/12/31 07:18:32;;;;;;;24.93;20.47;;;;;;;;;;5073941;28;20798;-77
2020/12/31 07:21:00;;;;;;;23.45;20.15;;;;;;;;;;5073408;28;20358;-77
2020/12/31 07:23:46;;;;;;;25.17;21.15;;;;;;;;;;5073227;28;20401;-78
2020/12/31 07:26:12;;;;;;;23.15;19.80;;;;;;;;;;5073397;28;20358;-79
2020/12/31 07:28:40;;;;;;;24.17;20.70;;;;;;;;;;5055666;28;20369;-78
2020/12/31 07:31:06;;;;;;;26.98;21.55;;;;;;;;;;5072940;28;20362;-77
2020/12/31 07:33:36;;;;;;;28.00;22.55;;;;;;;;;;5073190;28;20362;-77
2020/12/31 07:36:14;;;;;;;25.40;21.75;;;;;;;;;;5073594;28;20362;-76
2020/12/31 07:38:41;;;;;;;27.90;22.07;;;;;;;;;;5055059;28;20439;-77
2020/12/31 07:41:11;;;;;;;27.48;21.52;;;;;;;;;;5073303;28;20834;-77
2020/12/31 07:43:37;;;;;;;26.73;20.42;;;;;;;;;;5055052;28;20428;-77
2020/12/31 07:46:04;;;;;;;24.47;20.60;;;;;;;;;;5055146;28;20370;-78
2020/12/31 07:48:30;;;;;;;23.70;20.08;;;;;;;;;;5073079;28;20457;-78
2020/12/31 07:51:01;;;;;;;23.98;19.83;;;;;;;;;;5072807;28;20366;-78
2020/12/31 07:53:27;;;;;;;24.38;20.33;;;;;;;;;;5054849;28;20373;-77
2020/12/31 07:55:54;;;;;;;23.25;19.58;;;;;;;;;;5072988;28;20362;-78
2020/12/31 07:58:20;;;;;;;22.55;19.42;;;;;;;;;;5054908;28;20431;-77
2020/12/31 08:00:59;;;;;;;22.67;19.75;;;;;;;;;;5049669;28;20384;-76
2020/12/31 08:03:26;;;;;;;22.60;18.92;;;;;;;;;;5054712;28;20394;-77
2020/12/31 08:05:58;;;;;;;20.17;18.02;;;;;;;;;;5054408;28;20366;-78
2020/12/31 08:08:24;;;;;;;21.92;18.33;;;;;;;;;;5054084;28;20370;-77
2020/12/31 08:10:51;;;;;;;18.80;16.80;;;;;;;;;;5072920;28;20476;-76
2020/12/31 08:13:17;;;;;;;20.75;18.00;;;;;;;;;;5054640;28;20378;-78
2020/12/31 08:15:55;;;;;;;19.38;17.38;;;;;;;;;;5072535;28;20362;-80
2020/12/31 08:18:23;;;;;;;20.08;16.98;;;;;;;;;;5079709;28;20859;-77
2020/12/31 08:20:50;;;;;;;18.90;16.90;;;;;;;;;;5082736;28;20361;-78
2020/12/31 08:23:29;;;;;;;17.52;15.63;;;;;;;;;;5092439;28;20445;-78
2020/12/31 08:25:56;;;;;;;18.65;16.75;;;;;;;;;;5074050;28;20369;-78
2020/12/31 08:28:23;;;;;;;20.45;18.25;;;;;;;;;;5090380;28;20355;-78
2020/12/31 08:30:49;;;;;;;21.17;18.83;;;;;;;;;;5065814;28;20903;-79
2020/12/31 08:33:22;;;;;;;20.15;18.05;;;;;;;;;;5053639;28;20383;-78
2020/12/31 08:35:49;;;;;;;21.23;18.25;;;;;;;;;;5053903;28;20362;-78
2020/12/31 08:38:22;;;;;;;21.33;18.80;;;;;;;;;;5071522;28;20397;-77
2020/12/31 08:40:58;;;;;;;21.73;18.88;;;;;;;;;;5053393;28;20427;-79
2020/12/31 08:43:31;;;;;;;21.30;19.00;;;;;;;;;;5053374;28;20382;-78
2020/12/31 08:45:59;;;;;;;22.73;19.60;;;;;;;;;;5072112;28;20416;-79
2020/12/31 08:48:29;;;;;;;21.60;19.30;;;;;;;;;;5071332;28;20411;-80
2020/12/31 08:51:08;;;;;;;20.63;18.42;;;;;;;;;;5053222;28;20462;-77
2020/12/31 08:53:48;;;;;;;21.50;18.50;;;;;;;;;;5053205;28;20857;-78
2020/12/31 08:56:14;;;;;;;20.75;18.27;;;;;;;;;;5052487;28;20370;-79
2020/12/31 08:58:40;;;;;;;20.83;18.58;;;;;;;;;;5058521;28;20373;-78
2020/12/31 09:01:06;;;;;;;20.65;18.42;;;;;;;;;;5070767;28;20387;-78
2020/12/31 09:03:32;;;;;;;20.07;17.77;;;;;;;;;;5053059;28;20393;-78
2020/12/31 09:06:00;;;;;;;20.23;17.40;;;;;;;;;;5048200;28;20746;-81
2020/12/31 09:08:27;;;;;;;20.30;18.20;;;;;;;;;;5076027;28;20375;-79
2020/12/31 09:11:00;;;;;;;21.92;18.38;;;;;;;;;;5053367;28;20364;-77
2020/12/31 09:13:25;;;;;;;21.58;18.35;;;;;;;;;;5062661;28;20406;-78
2020/12/31 09:16:27;;;;;;;19.83;17.75;;;;;;;;;;5063896;28;20415;-79
2020/12/31 09:18:57;;;;;;;19.90;17.65;;;;;;;;;;4972621;28;20420;-77
2020/12/31 09:21:27;;;;;;;20.55;18.35;;;;;;;;;;5039914;28;20410;-78
2020/12/31 09:23:53;;;;;;;19.77;17.65;;;;;;;;;;5052551;28;20391;-78
2020/12/31 09:26:26;;;;;;;19.75;17.67;;;;;;;;;;5055332;28;20822;-76
2020/12/31 09:28:52;;;;;;;19.45;17.40;;;;;;;;;;5067949;28;20372;-78
2020/12/31 09:31:22;;;;;;;17.48;15.68;;;;;;;;;;5050786;28;20896;-75
2020/12/31 09:33:48;;;;;;;17.75;15.88;;;;;;;;;;5069211;28;20386;-77
2020/12/31 09:36:24;;;;;;;17.50;15.70;;;;;;;;;;5055648;28;20767;-79
2020/12/31 09:38:51;;;;;;;16.70;14.98;;;;;;;;;;5061933;28;20355;-76
2020/12/31 09:41:17;;;;;;;15.85;14.25;;;;;;;;;;5067235;28;20362;-79
2020/12/31 09:43:43;;;;;;;16.67;14.98;;;;;;;;;;5055512;28;20826;-78
2020/12/31 09:46:09;;;;;;;15.55;13.95;;;;;;;;;;5059386;28;20472;-76
2020/12/31 09:48:36;;;;;;;18.95;15.40;;;;;;;;;;5070146;28;20844;-79
2020/12/31 09:51:03;;;;;;;15.52;13.85;;;;;;;;;;5066618;28;20373;-78
2020/12/31 09:53:29;;;;;;;16.35;14.65;;;;;;;;;;5061233;28;20375;-76
2020/12/31 09:55:55;;;;;;;14.73;13.23;;;;;;;;;;5043510;28;20376;-77
2020/12/31 09:58:21;;;;;;;14.73;13.25;;;;;;;;;;5049582;28;20366;-79
2020/12/31 10:00:47;;;;;;;14.27;12.80;;;;;;;;;;5039840;28;20383;-82
2020/12/31 10:03:13;;;;;;;14.40;13.00;;;;;;;;;;5049980;28;20935;-78
2020/12/31 10:05:39;;;;;;;14.20;12.48;;;;;;;;;;5064221;28;20846;-77
2020/12/31 10:08:05;;;;;;;14.60;13.10;;;;;;;;;;5058636;28;20366;-78
2020/12/31 10:10:31;;;;;;;13.35;11.95;;;;;;;;;;5057157;28;20375;-76
2020/12/31 10:12:57;;;;;;;13.80;12.40;;;;;;;;;;5058315;28;20368;-77
2020/12/31 10:15:23;;;;;;;13.70;12.40;;;;;;;;;;5046502;28;20404;-78
2020/12/31 10:17:49;;;;;;;13.37;12.00;;;;;;;;;;5068056;28;20393;-77
2020/12/31 10:20:15;;;;;;;13.63;12.23;;;;;;;;;;5060117;28;20449;-77
2020/12/31 10:22:41;;;;;;;12.82;11.55;;;;;;;;;;5055560;28;20403;-77
2020/12/31 10:25:07;;;;;;;13.23;11.82;;;;;;;;;;5066360;28;20381;-77
2020/12/31 10:27:34;;;;;;;12.73;11.43;;;;;;;;;;5050733;28;20433;-78
2020/12/31 10:30:00;;;;;;;12.45;11.15;;;;;;;;;;5057180;28;20382;-76
2020/12/31 10:32:26;;;;;;;11.73;10.63;;;;;;;;;;5071660;28;20475;-77
2020/12/31 10:34:52;;;;;;;11.77;10.60;;;;;;;;;;5058241;28;20375;-77
2020/12/31 10:37:18;;;;;;;12.30;11.13;;;;;;;;;;5070291;28;20386;-76
2020/12/31 10:39:44;;;;;;;12.73;11.52;;;;;;;;;;5058482;28;20368;-77
2020/12/31 10:42:10;;;;;;;11.65;10.45;;;;;;;;;;5073245;28;20361;-77
2020/12/31 10:44:36;;;;;;;12.05;10.75;;;;;;;;;;5073373;28;21001;-78
2020/12/31 10:47:02;;;;;;;11.43;10.32;;;;;;;;;;5073406;28;20441;-77
2020/12/31 10:49:28;;;;;;;12.23;11.02;;;;;;;;;;5073294;28;20372;-77
2020/12/31 10:51:54;;;;;;;11.48;10.38;;;;;;;;;;5072748;28;20385;-78
2020/12/31 10:54:20;;;;;;;11.57;10.45;;;;;;;;;;5053924;28;20791;-78
2020/12/31 10:56:48;;;;;;;11.10;10.05;;;;;;;;;;5071276;28;20442;-77
2020/12/31 10:59:14;;;;;;;10.77;9.77;;;;;;;;;;5071143;28;20362;-80
2020/12/31 11:01:40;;;;;;;10.32;9.32;;;;;;;;;;5071891;28;20382;-78
2020/12/31 11:04:06;;;;;;;11.02;9.93;;;;;;;;;;5051716;28;21072;-76
2020/12/31 11:06:32;;;;;;;10.75;9.65;;;;;;;;;;5053275;28;20452;-77
2020/12/31 11:08:58;;;;;;;10.07;9.15;;;;;;;;;;5073465;28;20358;-80
2020/12/31 11:11:25;;;;;;;10.07;9.13;;;;;;;;;;5073807;28;20435;-78
2020/12/31 11:13:52;;;;;;;10.18;9.18;;;;;;;;;;5073968;28;20473;-80
2020/12/31 11:16:19;;;;;;;9.52;8.63;;;;;;;;;;5053306;28;20388;-78
2020/12/31 11:18:45;;;;;;;9.95;9.05;;;;;;;;;;5084244;28;20404;-80
2020/12/31 11:21:14;;;;;;;9.23;8.43;;;;;;;;;;5080395;28;20399;-84
2020/12/31 11:23:40;;;;;;;9.90;8.90;;;;;;;;;;5069517;28;20420;-80
2020/12/31 11:26:12;;;;;;;10.25;9.25;;;;;;;;;;5069934;28;20366;-82
2020/12/31 11:28:38;;;;;;;10.73;9.00;;;;;;;;;;5066301;28;20473;-80
2020/12/31 11:31:06;;;;;;;10.00;8.82;;;;;;;;;;5051177;28;20386;-79
2020/12/31 11:33:32;;;;;;;8.98;8.13;;;;;;;;;;5074058;28;20396;-80
2020/12/31 11:35:59;;;;;;;10.43;9.32;;;;;;;;;;5069678;28;20457;-80
2020/12/31 11:38:26;;;;;;;10.38;9.38;;;;;;;;;;5070270;28;20390;-79
2020/12/31 11:40:53;;;;;;;10.10;9.00;;;;;;;;;;5050376;28;20378;-80
2020/12/31 11:43:19;;;;;;;10.50;9.43;;;;;;;;;;5069241;28;20390;-79
2020/12/31 11:45:45;;;;;;;10.00;9.00;;;;;;;;;;5068752;28;20790;-79
2020/12/31 11:48:13;;;;;;;10.82;9.73;;;;;;;;;;5078183;28;20899;-79
2020/12/31 11:50:41;;;;;;;10.20;9.20;;;;;;;;;;5067801;28;20425;-78
2020/12/31 11:53:08;;;;;;;9.85;8.85;;;;;;;;;;5074848;28;20366;-78
2020/12/31 11:55:35;;;;;;;9.45;8.57;;;;;;;;;;5063161;28;20480;-79
2020/12/31 11:58:04;;;;;;;9.45;8.55;;;;;;;;;;5072503;28;20948;-80
2020/12/31 12:00:30;;;;;;;10.02;9.13;;;;;;;;;;5066316;28;21169;-79
2020/12/31 12:02:56;;;;;;;10.88;8.80;;;;;;;;;;5077332;28;20405;-85
2020/12/31 12:05:23;;;;;;;9.15;8.32;;;;;;;;;;5051597;28;20381;-80
2020/12/31 12:07:52;;;;;;;10.38;9.27;;;;;;;;;;5076186;28;20396;-79
2020/12/31 12:10:18;;;;;;;10.65;9.55;;;;;;;;;;5075521;28;20365;-77
2020/12/31 12:12:48;;;;;;;10.13;9.18;;;;;;;;;;5038851;28;20864;-78
2020/12/31 12:15:15;;;;;;;10.02;9.00;;;;;;;;;;5064780;28;20987;-79
2020/12/31 12:17:42;;;;;;;9.65;8.65;;;;;;;;;;5067989;28;20393;-77
2020/12/31 12:20:10;;;;;;;9.90;8.90;;;;;;;;;;5068440;28;20379;-78
2020/12/31 12:22:37;;;;;;;9.83;8.83;;;;;;;;;;5075034;28;20415;-79
2020/12/31 12:25:03;;;;;;;8.52;7.72;;;;;;;;;;5069828;28;20378;-79
2020/12/31 12:27:30;;;;;;;9.43;8.48;;;;;;;;;;5069049;28;20745;-81
2020/12/31 12:29:56;;;;;;;9.65;8.20;;;;;;;;;;5041516;28;20866;-82
2020/12/31 12:32:23;;;;;;;8.60;7.70;;;;;;;;;;5068398;28;20374;-83
2020/12/31 12:34:49;;;;;;;8.52;7.72;;;;;;;;;;5040878;28;20422;-81
2020/12/31 12:37:17;;;;;;;8.57;7.78;;;;;;;;;;5069133;28;20445;-80
2020/12/31 12:39:43;;;;;;;8.45;7.60;;;;;;;;;;5085224;28;20364;-81
2020/12/31 12:42:09;;;;;;;8.82;7.53;;;;;;;;;;5067857;28;20388;-78
2020/12/31 12:44:35;;;;;;;8.95;8.05;;;;;;;;;;5060186;28;20495;-78
2020/12/31 12:47:07;;;;;;;9.57;8.70;;;;;;;;;;5073546;28;20378;-77
2020/12/31 12:49:33;;;;;;;8.73;7.75;;;;;;;;;;5076141;28;20374;-79
2020/12/31 12:52:01;;;;;;;8.27;7.47;;;;;;;;;;5077111;28;20365;-81
2020/12/31 12:54:27;;;;;;;7.60;6.90;;;;;;;;;;5064451;28;20377;-76
2020/12/31 12:56:55;;;;;;;8.13;7.00;;;;;;;;;;5078651;28;20419;-75
2020/12/31 12:59:20;;;;;;;9.48;8.02;;;;;;;;;;5070786;28;20382;-80
2020/12/31 13:01:46;;;;;;;8.30;7.50;;;;;;;;;;5075329;28;20460;-76
2020/12/31 13:04:12;;;;;;;8.88;7.97;;;;;;;;;;5045964;28;20441;-75
2020/12/31 13:06:41;;;;;;;8.48;7.68;;;;;;;;;;5063630;28;20368;-78
2020/12/31 13:09:07;;;;;;;8.23;7.40;;;;;;;;;;5064082;28;20427;-75
2020/12/31 13:11:34;;;;;;;8.18;7.47;;;;;;;;;;5064917;28;20371;-76
2020/12/31 13:14:00;;;;;;;8.38;7.60;;;;;;;;;;5066014;28;20379;-75
2020/12/31 13:16:26;;;;;;;9.77;8.02;;;;;;;;;;5060211;28;20360;-81
2020/12/31 13:18:52;;;;;;;8.93;8.10;;;;;;;;;;5076421;28;20362;-76
2020/12/31 13:21:19;;;;;;;8.55;7.75;;;;;;;;;;5074987;28;20376;-79
2020/12/31 13:23:46;;;;;;;8.68;7.65;;;;;;;;;;5044464;28;20402;-79
2020/12/31 13:26:12;;;;;;;9.23;8.33;;;;;;;;;;5055084;28;20386;-78
2020/12/31 13:28:38;;;;;;;10.40;9.18;;;;;;;;;;5072692;28;20370;-82
2020/12/31 13:31:04;;;;;;;9.05;8.15;;;;;;;;;;5042230;28;20371;-83
2020/12/31 13:33:30;;;;;;;9.00;8.10;;;;;;;;;;5054090;28;20386;-79
2020/12/31 13:35:56;;;;;;;8.70;7.90;;;;;;;;;;5070494;28;20546;-78
2020/12/31 13:38:22;;;;;;;8.20;7.50;;;;;;;;;;5071029;28;20362;-78
2020/12/31 13:40:49;;;;;;;9.13;8.23;;;;;;;;;;5052057;28;20407;-78
2020/12/31 13:43:16;;;;;;;9.80;8.90;;;;;;;;;;5074470;28;20576;-80
2020/12/31 13:45:42;;;;;;;9.48;8.48;;;;;;;;;;5058843;28;20372;-79
2020/12/31 13:48:08;;;;;;;10.63;9.52;;;;;;;;;;5066827;28;20954;-80
2020/12/31 13:50:35;;;;;;;10.80;9.75;;;;;;;;;;5050679;28;20371;-78
2020/12/31 13:53:01;;;;;;;9.93;9.03;;;;;;;;;;5075847;28;20374;-81
2020/12/31 13:55:27;;;;;;;10.77;9.60;;;;;;;;;;5056076;28;20785;-77
2020/12/31 13:57:55;;;;;;;10.77;9.68;;;;;;;;;;5069843;28;20374;-83
2020/12/31 14:00:21;;;;;;;10.25;9.35;;;;;;;;;;5082651;28;20404;-80
2020/12/31 14:02:47;;;;;;;10.03;9.03;;;;;;;;;;5071449;28;20408;-79
2020/12/31 14:05:16;;;;;;;10.07;9.07;;;;;;;;;;5090192;28;20443;-79
2020/12/31 14:07:42;;;;;;;9.50;8.63;;;;;;;;;;5087405;28;20375;-79
2020/12/31 14:10:09;;;;;;;9.57;8.68;;;;;;;;;;5065335;28;20374;-82
2020/12/31 14:12:35;;;;;;;10.18;9.23;;;;;;;;;;5076333;28;20377;-82
2020/12/31 14:15:01;;;;;;;11.32;10.18;;;;;;;;;;5090616;28;20369;-78
2020/12/31 14:17:27;;;;;;;11.60;10.43;;;;;;;;;;5090789;28;20361;-82
2020/12/31 14:19:54;;;;;;;10.88;9.88;;;;;;;;;;5062923;28;20844;-77
2020/12/31 14:22:21;;;;;;;12.35;11.05;;;;;;;;;;5055191;28;20464;-76
2020/12/31 14:24:47;;;;;;;10.60;9.60;;;;;;;;;;5052789;28;20395;-78